createdAt,value
2022-12-04T00:01:45.930Z,101930.28
2022-12-04T00:04:16.006Z,101931.75
2022-12-04T00:06:45.747Z,101932.98
2022-12-04T00:09:15.841Z,101932.00
2022-12-04T00:11:45.619Z,101933.95
2022-12-04T00:14:17.359Z,101924.41
2022-12-04T00:16:47.235Z,101923.45
2022-12-04T00:19:18.017Z,101915.03
2022-12-04T00:21:49.360Z,101923.68
2022-12-04T00:24:19.425Z,101922.94
2022-12-04T00:26:49.482Z,101919.05
2022-12-04T00:29:19.524Z,101917.34
2022-12-04T00:31:49.429Z,101914.06
2022-12-04T00:34:19.478Z,101909.40
2022-12-04T00:36:49.295Z,101908.30
2022-12-04T00:39:19.331Z,101910.98
2022-12-04T00:41:49.082Z,101914.00
2022-12-04T00:44:19.133Z,101917.82
2022-12-04T00:46:49.173Z,101912.21
2022-12-04T00:49:18.940Z,101909.73
2022-12-04T00:51:48.664Z,101905.98
2022-12-04T00:54:18.124Z,101909.52
2022-12-04T00:56:47.864Z,101908.44
2022-12-04T00:59:17.898Z,101909.03
2022-12-04T01:01:47.691Z,101910.85
2022-12-04T01:04:18.340Z,101909.39
2022-12-04T01:06:48.211Z,101911.46
2022-12-04T01:09:18.719Z,101912.16
2022-12-04T01:11:48.745Z,101915.24
2022-12-04T01:14:20.985Z,101917.94
2022-12-04T01:16:51.087Z,101917.46
2022-12-04T01:19:20.863Z,101922.69
2022-12-04T01:21:50.700Z,101921.23
2022-12-04T01:24:20.445Z,101924.19
2022-12-04T01:26:50.192Z,101915.03
2022-12-04T01:29:20.224Z,101919.92
2022-12-04T01:31:50.050Z,101912.08
2022-12-04T01:34:19.618Z,101923.05
2022-12-04T01:36:49.374Z,101920.16
2022-12-04T01:39:19.503Z,101917.84
2022-12-04T01:41:49.307Z,101922.11
2022-12-04T01:44:25.458Z,101916.14
2022-12-04T01:46:57.155Z,101919.78
2022-12-04T01:49:35.602Z,101913.91
2022-12-04T01:52:16.476Z,101902.55
2022-12-04T01:54:49.204Z,101902.55
2022-12-04T01:57:21.590Z,101901.33
2022-12-04T01:59:54.435Z,101892.00
2022-12-04T02:02:30.524Z,101881.75
2022-12-04T02:05:02.897Z,101895.33
2022-12-04T02:07:33.571Z,101902.76
2022-12-04T02:10:08.066Z,101902.76
2022-12-04T02:12:46.277Z,101896.31
2022-12-04T02:15:25.064Z,101904.11
2022-12-04T02:18:00.823Z,101905.75
2022-12-04T02:20:33.702Z,101904.09
2022-12-04T02:23:39.350Z,101902.73
2022-12-04T02:26:43.425Z,101905.17
2022-12-04T02:29:22.035Z,101910.61
2022-12-04T02:31:55.206Z,101910.61
2022-12-04T02:34:43.802Z,101910.20
2022-12-04T02:37:19.907Z,101902.98
2022-12-04T02:39:53.244Z,101897.13
2022-12-04T02:42:28.883Z,101898.37
2022-12-04T02:45:04.338Z,101890.28
2022-12-04T02:47:36.646Z,101896.98
2022-12-04T02:53:00.554Z,101896.12
2022-12-04T02:55:40.723Z,101900.30
2022-12-04T02:58:14.577Z,101896.88
2022-12-04T03:00:46.395Z,101887.36
2022-12-04T03:03:19.348Z,101886.02
2022-12-04T03:05:57.160Z,101886.02
2022-12-04T03:08:32.648Z,101890.16
2022-12-04T03:11:03.048Z,101878.83
2022-12-04T03:13:38.837Z,101877.98
2022-12-04T03:16:14.125Z,101873.31
2022-12-04T03:18:59.364Z,101873.06
2022-12-04T03:21:32.373Z,101873.18
2022-12-04T03:24:08.019Z,101866.09
2022-12-04T03:26:40.805Z,101869.77
2022-12-04T03:29:22.453Z,101867.35
2022-12-04T03:32:03.973Z,101867.32
2022-12-04T03:34:39.746Z,101876.62
2022-12-04T03:37:12.560Z,101867.83
2022-12-04T03:40:00.042Z,101863.80
2022-12-04T03:42:32.623Z,101876.14
2022-12-04T03:45:31.717Z,101872.35
2022-12-04T03:48:04.508Z,101876.98
2022-12-04T03:50:37.161Z,101871.72
2022-12-04T03:53:12.416Z,101874.19
2022-12-04T03:55:59.704Z,101865.62
2022-12-04T03:58:32.831Z,101866.12
2022-12-04T04:01:05.925Z,101870.23
2022-12-04T04:03:38.823Z,101870.00
2022-12-04T04:06:11.603Z,101869.79
2022-12-04T04:08:44.301Z,101866.12
2022-12-04T04:11:19.598Z,101876.71
2022-12-04T04:14:18.989Z,101871.71
2022-12-04T04:17:09.639Z,101877.34
2022-12-04T04:19:59.908Z,101868.31
2022-12-04T04:22:49.419Z,101868.89
2022-12-04T04:25:21.491Z,101866.38
2022-12-04T04:27:55.865Z,101875.61
2022-12-04T04:30:27.521Z,101867.81
2022-12-04T04:33:03.392Z,101865.88
2022-12-04T04:35:38.770Z,101869.77
2022-12-04T04:38:21.451Z,101869.16
2022-12-04T04:41:15.051Z,101862.10
2022-12-04T04:43:59.370Z,101869.42
2022-12-04T04:46:34.971Z,101862.20
2022-12-04T04:49:07.044Z,101866.97
2022-12-04T04:51:37.923Z,101867.95
2022-12-04T04:54:12.182Z,101865.16
2022-12-04T04:56:44.980Z,101876.75
2022-12-04T04:59:14.958Z,101872.09
2022-12-04T05:01:47.376Z,101870.53
2022-12-04T05:04:17.079Z,101870.53
2022-12-04T05:06:48.519Z,101871.97
2022-12-04T05:09:19.058Z,101867.11
2022-12-04T05:11:48.779Z,101864.52
2022-12-04T05:14:18.551Z,101864.39
2022-12-04T05:16:48.600Z,101866.10
2022-12-04T05:19:35.859Z,101871.96
2022-12-04T05:22:05.529Z,101868.44
2022-12-04T05:24:35.281Z,101870.01
2022-12-04T05:27:05.179Z,101872.58
2022-12-04T05:29:36.091Z,101876.00
2022-12-04T05:32:07.841Z,101876.00
2022-12-04T05:34:37.978Z,101875.88
2022-12-04T05:37:08.003Z,101878.56
2022-12-04T05:39:37.759Z,101873.44
2022-12-04T05:42:07.309Z,101879.56
2022-12-04T05:44:37.010Z,101876.00
2022-12-04T05:47:08.256Z,101879.09
2022-12-04T05:49:38.031Z,101878.34
2022-12-04T05:52:08.136Z,101876.89
2022-12-04T05:54:37.973Z,101869.30
2022-12-04T05:57:08.647Z,101873.09
2022-12-04T05:59:38.487Z,101860.84
2022-12-04T06:02:08.459Z,101863.06
2022-12-04T06:04:38.985Z,101862.34
2022-12-04T06:07:10.009Z,101872.97
2022-12-04T06:09:40.043Z,101866.73
2022-12-04T06:12:10.638Z,101858.30
2022-12-04T06:14:40.375Z,101857.80
2022-12-04T06:17:10.172Z,101865.83
2022-12-04T06:19:40.877Z,101867.20
2022-12-04T06:22:10.396Z,101864.39
2022-12-04T06:24:40.392Z,101855.86
2022-12-04T06:27:27.673Z,101851.22
2022-12-04T06:32:21.825Z,101849.02
2022-12-04T06:34:54.979Z,101850.95
2022-12-04T06:37:25.988Z,101842.51
2022-12-04T06:39:56.108Z,101853.04
2022-12-04T06:42:25.746Z,101863.57
2022-12-04T06:44:55.517Z,101859.16
2022-12-04T06:47:25.256Z,101859.39
2022-12-04T06:49:55.265Z,101861.10
2022-12-04T06:52:25.104Z,101863.80
2022-12-04T06:54:55.160Z,101868.42
2022-12-04T06:57:25.287Z,101867.34
2022-12-04T06:59:55.143Z,101866.98
2022-12-04T07:02:25.211Z,101866.71
2022-12-04T07:04:57.628Z,101877.36
2022-12-04T07:07:27.465Z,101879.07
2022-12-04T07:09:57.520Z,101876.02
2022-12-04T07:12:27.344Z,101878.81
2022-12-04T07:14:57.095Z,101878.81
2022-12-04T07:17:27.126Z,101892.75
2022-12-04T07:19:57.136Z,101892.75
2022-12-04T07:22:28.090Z,101889.94
2022-12-04T07:24:57.813Z,101892.02
2022-12-04T07:27:27.581Z,101892.53
2022-12-04T07:29:57.798Z,101895.22
2022-12-04T07:32:27.992Z,101894.83
2022-12-04T07:34:58.000Z,101903.14
2022-12-04T07:37:27.755Z,101896.20
2022-12-04T07:39:57.977Z,101895.22
2022-12-04T07:42:29.007Z,101891.19
2022-12-04T07:44:59.090Z,101899.62
2022-12-04T07:47:28.844Z,101900.22
2022-12-04T07:49:58.854Z,101894.73
2022-12-04T07:52:28.745Z,101902.81
2022-12-04T07:54:59.364Z,101902.55
2022-12-04T07:57:29.491Z,101906.34
2022-12-04T07:59:59.569Z,101903.27
2022-12-04T08:02:29.788Z,101894.59
2022-12-04T08:04:59.713Z,101901.31
2022-12-04T08:07:29.410Z,101896.70
2022-12-04T08:09:59.310Z,101896.92
2022-12-04T08:12:29.342Z,101904.14
2022-12-04T08:14:59.441Z,101904.99
2022-12-04T08:17:29.320Z,101906.09
2022-12-04T08:19:59.483Z,101913.43
2022-12-04T08:22:29.347Z,101916.25
2022-12-04T08:24:59.132Z,101918.20
2022-12-04T08:27:28.890Z,101916.73
2022-12-04T08:29:58.524Z,101917.34
2022-12-04T08:32:28.518Z,101909.27
2022-12-04T08:34:58.256Z,101921.84
2022-12-04T08:37:28.042Z,101920.88
2022-12-04T08:39:58.888Z,101922.74
2022-12-04T08:42:29.356Z,101925.42
2022-12-04T08:44:59.468Z,101925.42
2022-12-04T08:47:29.520Z,101923.32
2022-12-04T08:49:59.502Z,101917.94
2022-12-04T08:52:29.643Z,101919.65
2022-12-04T08:54:59.568Z,101921.89
2022-12-04T08:57:29.041Z,101920.27
2022-12-04T08:59:58.998Z,101908.03
2022-12-04T09:02:28.745Z,101913.41
2022-12-04T09:04:59.021Z,101908.28
2022-12-04T09:07:28.946Z,101905.69
2022-12-04T09:09:59.073Z,101906.52
2022-12-04T09:12:28.883Z,101903.66
2022-12-04T09:14:58.628Z,101903.66
2022-12-04T09:17:28.403Z,101901.55
2022-12-04T09:20:01.265Z,101911.34
2022-12-04T09:22:45.539Z,101904.50
2022-12-04T09:25:01.089Z,101904.86
2022-12-04T09:27:30.862Z,101904.41
2022-12-04T09:30:00.642Z,101904.51
2022-12-04T09:32:30.169Z,101914.89
2022-12-04T09:34:59.926Z,101917.86
2022-12-04T09:37:29.668Z,101916.00
2022-12-04T09:39:59.872Z,101923.10
2022-12-04T09:42:38.135Z,101926.04
2022-12-04T09:45:13.379Z,101926.04
2022-12-04T09:47:46.529Z,101927.49
2022-12-04T09:50:23.177Z,101921.26
2022-12-04T09:52:58.245Z,101918.31
2022-12-04T09:55:39.979Z,101912.34
2022-12-04T09:58:12.785Z,101918.47
2022-12-04T10:00:45.953Z,101919.30
2022-12-04T10:03:21.560Z,101911.95
2022-12-04T10:06:14.704Z,101911.95
2022-12-04T10:08:47.373Z,101917.45
2022-12-04T10:11:47.126Z,101913.55
2022-12-04T10:14:40.795Z,101908.64
2022-12-04T10:17:47.727Z,101905.25
2022-12-04T10:20:26.927Z,101912.83
2022-12-04T10:23:18.717Z,101915.86
2022-12-04T10:25:50.416Z,101910.50
2022-12-04T10:28:23.397Z,101909.03
2022-12-04T10:30:55.882Z,101909.91
2022-12-04T10:33:31.534Z,101910.22
2022-12-04T10:36:03.453Z,101912.92
2022-12-04T10:38:50.745Z,101908.55
2022-12-04T10:41:37.764Z,101915.73
2022-12-04T10:44:12.765Z,101908.64
2022-12-04T10:46:46.286Z,101906.94
2022-12-04T10:49:20.898Z,101903.13
2022-12-04T10:51:50.983Z,101904.37
2022-12-04T10:54:23.790Z,101907.82
2022-12-04T10:56:58.591Z,101912.58
2022-12-04T10:59:29.794Z,101912.58
2022-12-04T11:02:08.025Z,101912.56
2022-12-04T11:04:37.933Z,101911.95
2022-12-04T11:07:10.726Z,101900.69
2022-12-04T11:09:42.004Z,101903.63
2022-12-04T11:12:22.515Z,101903.98
2022-12-04T11:15:11.854Z,101899.65
2022-12-04T11:17:41.867Z,101894.92
2022-12-04T11:20:22.055Z,101884.29
2022-12-04T11:22:58.476Z,101875.25
2022-12-04T11:25:33.920Z,101886.12
2022-12-04T11:28:04.501Z,101872.86
2022-12-04T11:30:37.324Z,101863.96
2022-12-04T11:33:10.083Z,101863.96
2022-12-04T11:35:40.591Z,101874.20
2022-12-04T11:38:19.349Z,101863.38
2022-12-04T11:40:52.164Z,101866.88
2022-12-04T11:43:24.054Z,101856.25
2022-12-04T11:46:02.799Z,101857.19
2022-12-04T11:48:35.156Z,101857.19
2022-12-04T11:51:40.594Z,101853.95
2022-12-04T11:54:28.369Z,101849.41
2022-12-04T11:57:01.340Z,101854.45
2022-12-04T11:59:36.613Z,101856.47
2022-12-04T12:02:21.664Z,101852.88
2022-12-04T12:05:04.161Z,101839.77
2022-12-04T12:07:51.995Z,101838.39
2022-12-04T12:13:22.903Z,101826.45
2022-12-04T12:16:10.143Z,101826.09
2022-12-04T12:18:42.981Z,101832.77
2022-12-04T12:21:18.831Z,101824.02
2022-12-04T12:23:57.364Z,101819.36
2022-12-04T12:26:32.605Z,101819.00
2022-12-04T12:29:05.773Z,101815.37
2022-12-04T12:31:56.634Z,101814.10
2022-12-04T12:34:34.779Z,101823.52
2022-12-04T12:37:13.260Z,101819.48
2022-12-04T12:39:46.081Z,101819.48
2022-12-04T12:45:09.806Z,101823.95
2022-12-04T12:47:45.387Z,101815.42
2022-12-04T12:50:34.903Z,101817.11
2022-12-04T12:53:10.506Z,101812.62
2022-12-04T12:55:43.040Z,101810.09
2022-12-04T12:58:32.004Z,101816.32
2022-12-04T13:01:20.202Z,101819.84
2022-12-04T13:04:17.837Z,101807.73
2022-12-04T13:06:50.645Z,101804.69
2022-12-04T13:09:32.437Z,101803.50
2022-12-04T13:12:05.255Z,101795.76
2022-12-04T13:14:35.042Z,101793.34
2022-12-04T13:17:07.980Z,101803.05
2022-12-04T13:19:42.698Z,101805.38
2022-12-04T13:22:18.157Z,101800.09
2022-12-04T13:25:13.273Z,101800.09
2022-12-04T13:28:00.861Z,101805.41
2022-12-04T13:30:33.722Z,101804.26
2022-12-04T13:33:23.296Z,101796.12
2022-12-04T13:35:58.796Z,101802.34
2022-12-04T13:38:31.287Z,101804.31
2022-12-04T13:41:04.137Z,101807.58
2022-12-04T13:43:46.081Z,101812.06
2022-12-04T13:46:34.065Z,101805.99
2022-12-04T13:49:18.912Z,101803.55
2022-12-04T13:51:50.646Z,101797.30
2022-12-04T13:54:31.680Z,101796.52
2022-12-04T13:57:19.740Z,101801.78
2022-12-04T13:59:50.109Z,101800.72
2022-12-04T14:02:32.184Z,101800.56
2022-12-04T14:05:05.049Z,101806.37
2022-12-04T14:07:39.936Z,101801.04
2022-12-04T14:10:21.282Z,101805.12
2022-12-04T14:13:02.920Z,101806.07
2022-12-04T14:15:35.983Z,101800.01
2022-12-04T14:18:15.622Z,101800.05
2022-12-04T14:20:46.013Z,101816.30
2022-12-04T14:23:25.749Z,101808.59
2022-12-04T14:25:59.942Z,101809.79
2022-12-04T14:28:41.634Z,101811.12
2022-12-04T14:31:29.427Z,101811.50
2022-12-04T14:34:16.963Z,101812.27
2022-12-04T14:36:49.256Z,101816.09
2022-12-04T14:39:44.362Z,101812.91
2022-12-04T14:42:40.247Z,101818.66
2022-12-04T14:45:38.090Z,101811.14
2022-12-04T14:48:18.341Z,101809.23
2022-12-04T14:50:56.521Z,101803.62
2022-12-04T14:53:44.193Z,101801.71
2022-12-04T14:56:28.823Z,101805.61
2022-12-04T14:58:59.738Z,101805.61
2022-12-04T15:01:32.587Z,101802.98
2022-12-04T15:04:08.187Z,101795.41
2022-12-04T15:06:40.046Z,101784.00
2022-12-04T15:09:36.819Z,101797.75
2022-12-04T15:12:35.046Z,101797.73
2022-12-04T15:15:21.189Z,101799.98
2022-12-04T15:18:05.869Z,101794.73
2022-12-04T15:20:39.519Z,101809.13
2022-12-04T15:23:12.075Z,101810.56
2022-12-04T15:25:47.789Z,101801.47
2022-12-04T15:28:38.329Z,101803.19
2022-12-04T15:31:11.221Z,101805.12
2022-12-04T15:33:42.122Z,101810.58
2022-12-04T15:36:14.917Z,101810.58
2022-12-04T15:38:45.852Z,101809.72
2022-12-04T15:41:30.458Z,101815.50
2022-12-04T15:44:00.752Z,101815.78
2022-12-04T15:46:37.673Z,101818.67
2022-12-04T15:49:18.818Z,101820.36
2022-12-04T15:51:49.386Z,101832.16
2022-12-04T15:54:24.780Z,101828.74
2022-12-04T15:57:09.289Z,101830.19
2022-12-04T15:59:39.112Z,101832.75
2022-12-04T16:02:23.273Z,101833.17
2022-12-04T16:04:53.037Z,101831.28
2022-12-04T16:07:28.556Z,101831.28
2022-12-04T16:10:03.657Z,101829.22
2022-12-04T16:12:33.100Z,101831.34
2022-12-04T16:15:03.210Z,101825.17
2022-12-04T16:17:36.376Z,101832.45
2022-12-04T16:20:08.852Z,101819.70
2022-12-04T16:22:41.261Z,101837.06
2022-12-04T16:25:14.171Z,101829.92
2022-12-04T16:27:43.906Z,101839.19
2022-12-04T16:30:15.611Z,101845.21
2022-12-04T16:32:45.343Z,101851.17
2022-12-04T16:35:17.193Z,101843.14
2022-12-04T16:37:47.008Z,101843.14
2022-12-04T16:40:17.883Z,101841.88
2022-12-04T16:42:47.662Z,101847.84
2022-12-04T16:45:29.378Z,101843.45
2022-12-04T16:47:59.129Z,101849.33
2022-12-04T16:50:29.137Z,101847.41
2022-12-04T16:52:59.612Z,101842.96
2022-12-04T16:55:38.423Z,101852.23
2022-12-04T16:58:09.855Z,101850.91
2022-12-04T17:00:42.261Z,101846.52
2022-12-04T17:03:26.729Z,101844.75
2022-12-04T17:05:57.015Z,101843.19
2022-12-04T17:08:27.026Z,101836.27
2022-12-04T17:10:57.126Z,101836.27
2022-12-04T17:13:26.881Z,101844.09
2022-12-04T17:15:58.236Z,101848.70
2022-12-04T17:18:28.950Z,101848.58
2022-12-04T17:20:59.066Z,101846.38
2022-12-04T17:23:28.796Z,101858.55
2022-12-04T17:26:04.395Z,101863.89
2022-12-04T17:28:36.334Z,101865.73
2022-12-04T17:31:08.457Z,101861.90
2022-12-04T17:33:38.184Z,101866.98
2022-12-04T17:36:14.653Z,101856.48
2022-12-04T17:38:44.831Z,101866.33
2022-12-04T17:41:15.704Z,101864.41
2022-12-04T17:43:45.834Z,101864.41
2022-12-04T17:46:20.064Z,101861.50
2022-12-04T17:48:50.600Z,101864.51
2022-12-04T17:51:26.011Z,101862.38
2022-12-04T17:53:56.090Z,101867.06
2022-12-04T17:56:26.611Z,101870.32
2022-12-04T17:58:56.751Z,101875.63
2022-12-04T18:01:28.701Z,101882.45
2022-12-04T18:04:03.103Z,101885.69
2022-12-04T18:06:35.922Z,101878.47
2022-12-04T18:09:07.609Z,101883.53
2022-12-04T18:11:39.791Z,101888.28
2022-12-04T18:14:14.143Z,101887.17
2022-12-04T18:16:47.020Z,101880.98
2022-12-04T18:19:17.013Z,101880.55
2022-12-04T18:21:46.526Z,101880.55
2022-12-04T18:24:17.464Z,101869.55
2022-12-04T18:26:49.221Z,101867.55
2022-12-04T18:29:25.039Z,101868.22
2022-12-04T18:31:54.976Z,101856.80
2022-12-04T18:34:24.908Z,101869.42
2022-12-04T18:36:55.450Z,101866.00
2022-12-04T18:39:26.552Z,101872.05
2022-12-04T18:41:56.937Z,101871.48
2022-12-04T18:44:27.079Z,101865.37
2022-12-04T18:47:00.575Z,101863.45
2022-12-04T18:49:30.690Z,101872.39
2022-12-04T18:52:00.803Z,101868.16
2022-12-04T18:54:30.643Z,101865.59
2022-12-04T18:57:00.684Z,101865.59
2022-12-04T18:59:30.428Z,101863.91
2022-12-04T19:02:00.281Z,101865.59
2022-12-04T19:04:33.014Z,101862.16
2022-12-04T19:07:04.849Z,101868.61
2022-12-04T19:10:10.054Z,101877.30
2022-12-04T19:12:09.263Z,101873.73
2022-12-04T19:14:39.735Z,101869.38
2022-12-04T19:17:10.306Z,101866.52
2022-12-04T19:19:40.525Z,101862.73
2022-12-04T19:22:11.771Z,101861.82
2022-12-04T19:24:41.771Z,101861.82
2022-12-04T19:27:12.005Z,101866.50
2022-12-04T19:29:43.432Z,101868.21
2022-12-04T19:32:13.317Z,101868.85
2022-12-04T19:34:43.600Z,101875.37
2022-12-04T19:37:14.324Z,101864.96
2022-12-04T19:39:44.745Z,101861.55
2022-12-04T19:42:14.537Z,101863.89
2022-12-04T19:44:49.222Z,101861.27
2022-12-04T19:47:15.788Z,101866.07
2022-12-04T19:49:46.610Z,101870.34
2022-12-04T19:52:16.463Z,101872.95
2022-12-04T19:54:46.335Z,101879.48
2022-12-04T19:57:16.170Z,101864.80
2022-12-04T19:59:46.898Z,101868.19
2022-12-04T20:02:16.881Z,101874.60
2022-12-04T20:04:46.713Z,101863.31
2022-12-04T20:07:17.423Z,101869.77
2022-12-04T20:09:52.098Z,101865.92
2022-12-04T20:12:19.035Z,101865.92
2022-12-04T20:14:48.880Z,101871.46
2022-12-04T20:17:18.623Z,101869.57
2022-12-04T20:19:48.692Z,101876.23
2022-12-04T20:22:18.129Z,101865.91
2022-12-04T20:24:47.880Z,101870.67
2022-12-04T20:27:17.667Z,101871.09
2022-12-04T20:29:47.773Z,101874.27
2022-12-04T20:32:17.266Z,101865.16
2022-12-04T20:34:47.106Z,101870.11
2022-12-04T20:37:17.149Z,101868.36
2022-12-04T20:39:47.224Z,101865.29
2022-12-04T20:42:16.982Z,101862.19
2022-12-04T20:44:46.772Z,101865.08
2022-12-04T20:47:16.504Z,101862.33
2022-12-04T20:49:46.249Z,101859.96
2022-12-04T20:52:15.785Z,101866.63
2022-12-04T20:54:45.557Z,101862.78
2022-12-04T20:57:15.394Z,101865.69
2022-12-04T20:59:45.140Z,101863.94
2022-12-04T21:02:15.104Z,101873.23
2022-12-04T21:04:44.837Z,101864.13
2022-12-04T21:07:14.582Z,101858.95
2022-12-04T21:09:44.393Z,101873.44
2022-12-04T21:12:31.957Z,101865.49
2022-12-04T21:15:18.971Z,101867.83
2022-12-04T21:17:48.714Z,101868.69
2022-12-04T21:20:18.245Z,101874.72
2022-12-04T21:22:48.013Z,101877.12
2022-12-04T21:25:17.556Z,101877.19
2022-12-04T21:27:47.392Z,101877.56
2022-12-04T21:30:17.210Z,101872.74
2022-12-04T21:32:46.948Z,101877.98
2022-12-04T21:35:16.757Z,101873.03
2022-12-04T21:37:46.506Z,101871.59
2022-12-04T21:40:16.280Z,101878.63
2022-12-04T21:42:46.037Z,101871.26
2022-12-04T21:45:15.800Z,101872.88
2022-12-04T21:47:45.540Z,101873.51
2022-12-04T21:50:15.280Z,101875.28
2022-12-04T21:52:45.038Z,101873.46
2022-12-04T21:55:14.568Z,101870.34
2022-12-04T21:57:44.608Z,101870.45
2022-12-04T22:00:14.842Z,101865.02
2022-12-04T22:02:44.701Z,101865.99
2022-12-04T22:05:14.495Z,101865.89
2022-12-04T22:07:44.630Z,101857.97
2022-12-04T22:10:14.819Z,101866.96
2022-12-04T22:12:50.395Z,101867.05
2022-12-04T22:15:16.853Z,101867.29
2022-12-04T22:17:46.678Z,101869.95
2022-12-04T22:20:16.407Z,101851.78
2022-12-04T22:22:46.183Z,101866.88
2022-12-04T22:25:16.012Z,101870.50
2022-12-04T22:27:45.767Z,101873.59
2022-12-04T22:30:16.100Z,101866.36
2022-12-04T22:32:45.935Z,101866.98
2022-12-04T22:35:16.121Z,101867.34
2022-12-04T22:37:46.181Z,101868.59
2022-12-04T22:40:17.194Z,101873.64
2022-12-04T22:42:47.225Z,101864.20
2022-12-04T22:45:17.003Z,101872.44
2022-12-04T22:47:46.734Z,101869.22
2022-12-04T22:50:16.927Z,101871.70
2022-12-04T22:52:46.631Z,101873.32
2022-12-04T22:55:16.519Z,101873.42
2022-12-04T22:57:46.561Z,101874.63
2022-12-04T23:00:16.708Z,101855.34
2022-12-04T23:02:46.521Z,101875.75
2022-12-04T23:05:16.349Z,101872.77
2022-12-04T23:07:46.327Z,101871.78
2022-12-04T23:10:16.185Z,101868.94
2022-12-04T23:12:45.932Z,101875.09
2022-12-04T23:15:15.990Z,101873.20
2022-12-04T23:17:45.811Z,101872.81
2022-12-04T23:20:16.475Z,101877.29
2022-12-04T23:22:47.895Z,101870.86
2022-12-04T23:25:17.726Z,101869.30
2022-12-04T23:27:47.465Z,101868.16
2022-12-04T23:30:21.406Z,101868.52
2022-12-04T23:32:48.943Z,101865.28
2022-12-04T23:35:18.616Z,101865.28
2022-12-04T23:37:48.066Z,101862.90
2022-12-04T23:40:17.884Z,101862.36
2022-12-04T23:42:47.644Z,101864.20
2022-12-04T23:45:17.177Z,101860.70
2022-12-04T23:47:47.511Z,101860.70
2022-12-04T23:50:17.116Z,101860.78
2022-12-04T23:52:46.879Z,101860.45
2022-12-04T23:55:16.955Z,101863.29
2022-12-04T23:57:46.718Z,101862.48
